Airport View

Enter AWOS ICAO identifier for current METAR.

ex. KFNL

KCMR 250055Z AUTO 34008G17KT 10SM CLR 18/M10 A3005 RMK AO2

25 May 2020 01:02

Frequency: 121.125

Phone: 928-635-1278

Other Area AWOS: KFLG - KSEZ - P52 - KGCN

TAF KFLG 242320Z 2500/2524 26009G17KT P6SM SKC FM250100 34005KT P6SM SKC FM251100 04010G18KT P6SM SKC